Terminal Aerodrome Forecast
Issued by NWS Burlington, VT

Home | Current Version | Previous Version | Text Only | Print | Product List | Glossary On
Versions: 1 2 3 4 5 6 7 8 9 10 11 12 13 14 15
000
FTUS41 KBTV 300520
TAFBTV
TAF
KBTV 300520Z 3006/3106 18015G25KT P6SM BKN250
      TEMPO 3007/3009 5SM -SHSN OVC050
     FM300900 19016G23KT P6SM OVC050
     FM301800 22013G21KT P6SM -SHRA OVC040
     FM310000 23009KT P6SM OVC050
     FM310300 26009KT 5SM BR OVC050=

USA.gov is the U.S. government's official web portal to all federal, state and local government web resources and services.